sensor_id;sensor_type;location;lat;lon;timestamp;P1;durP1;ratioP1;P2;durP2;ratioP2
80104;SDS011;69865;47.648;19.030;2023-12-28T00:00:18;34.70;;;34.13;;
80104;SDS011;69865;47.648;19.030;2023-12-28T00:00:51;34.77;;;34.23;;
80104;SDS011;69865;47.648;19.030;2023-12-28T00:01:23;36.60;;;36.07;;
80104;SDS011;69865;47.648;19.030;2023-12-28T00:01:55;35.03;;;34.40;;
80104;SDS011;69865;47.648;19.030;2023-12-28T00:02:27;34.97;;;34.17;;
80104;SDS011;69865;47.648;19.030;2023-12-28T00:02:59;35.20;;;34.30;;
80104;SDS011;69865;47.648;19.030;2023-12-28T00:03:31;35.10;;;34.10;;
80104;SDS011;69865;47.648;19.030;2023-12-28T00:04:04;35.17;;;34.07;;
80104;SDS011;69865;47.648;19.030;2023-12-28T00:04:36;32.87;;;32.13;;
80104;SDS011;69865;47.648;19.030;2023-12-28T00:05:08;33.27;;;32.57;;
80104;SDS011;69865;47.648;19.030;2023-12-28T00:05:40;33.47;;;32.67;;
80104;SDS011;69865;47.648;19.030;2023-12-28T00:06:12;32.60;;;31.93;;
80104;SDS011;69865;47.648;19.030;2023-12-28T00:06:45;33.70;;;33.00;;
80104;SDS011;69865;47.648;19.030;2023-12-28T00:07:17;34.90;;;34.03;;
80104;SDS011;69865;47.648;19.030;2023-12-28T00:07:49;34.80;;;33.87;;
80104;SDS011;69865;47.648;19.030;2023-12-28T00:08:21;35.57;;;34.63;;
80104;SDS011;69865;47.648;19.030;2023-12-28T00:08:53;34.67;;;34.00;;
80104;SDS011;69865;47.648;19.030;2023-12-28T00:09:35;33.80;;;33.07;;
80104;SDS011;69865;47.648;19.030;2023-12-28T00:10:07;35.30;;;34.33;;
80104;SDS011;69865;47.648;19.030;2023-12-28T00:10:40;34.83;;;33.90;;
80104;SDS011;69865;47.648;19.030;2023-12-28T00:11:13;32.90;;;31.93;;
80104;SDS011;69865;47.648;19.030;2023-12-28T00:11:45;34.13;;;33.33;;
80104;SDS011;69865;47.648;19.030;2023-12-28T00:12:18;35.80;;;35.07;;
80104;SDS011;69865;47.648;19.030;2023-12-28T00:12:50;35.57;;;34.40;;
80104;SDS011;69865;47.648;19.030;2023-12-28T00:13:22;35.50;;;34.20;;
80104;SDS011;69865;47.648;19.030;2023-12-28T00:13:54;35.20;;;34.07;;
80104;SDS011;69865;47.648;19.030;2023-12-28T00:14:26;35.63;;;34.57;;
80104;SDS011;69865;47.648;19.030;2023-12-28T00:14:58;35.77;;;34.67;;
80104;SDS011;69865;47.648;19.030;2023-12-28T00:15:30;36.77;;;35.60;;
80104;SDS011;69865;47.648;19.030;2023-12-28T00:16:03;34.20;;;33.47;;
80104;SDS011;69865;47.648;19.030;2023-12-28T00:16:35;33.73;;;32.60;;
80104;SDS011;69865;47.648;19.030;2023-12-28T00:17:07;32.93;;;32.07;;
80104;SDS011;69865;47.648;19.030;2023-12-28T00:17:40;32.17;;;31.47;;
80104;SDS011;69865;47.648;19.030;2023-12-28T00:18:12;31.40;;;30.93;;
80104;SDS011;69865;47.648;19.030;2023-12-28T00:18:44;33.03;;;32.47;;
80104;SDS011;69865;47.648;19.030;2023-12-28T00:19:16;32.57;;;32.00;;
80104;SDS011;69865;47.648;19.030;2023-12-28T00:19:49;33.83;;;33.10;;
80104;SDS011;69865;47.648;19.030;2023-12-28T00:20:21;34.90;;;33.83;;
80104;SDS011;69865;47.648;19.030;2023-12-28T00:20:53;34.27;;;33.17;;
80104;SDS011;69865;47.648;19.030;2023-12-28T00:21:25;34.37;;;33.20;;
80104;SDS011;69865;47.648;19.030;2023-12-28T00:21:57;34.93;;;34.07;;
80104;SDS011;69865;47.648;19.030;2023-12-28T00:22:29;34.60;;;33.93;;
80104;SDS011;69865;47.648;19.030;2023-12-28T00:23:01;35.07;;;34.43;;
80104;SDS011;69865;47.648;19.030;2023-12-28T00:23:34;35.20;;;34.47;;
80104;SDS011;69865;47.648;19.030;2023-12-28T00:24:06;35.03;;;34.33;;
80104;SDS011;69865;47.648;19.030;2023-12-28T00:24:38;33.87;;;33.37;;
80104;SDS011;69865;47.648;19.030;2023-12-28T00:25:11;33.93;;;33.27;;
80104;SDS011;69865;47.648;19.030;2023-12-28T00:25:43;34.23;;;33.27;;
80104;SDS011;69865;47.648;19.030;2023-12-28T00:26:16;33.83;;;33.00;;
80104;SDS011;69865;47.648;19.030;2023-12-28T00:26:48;35.07;;;34.40;;
80104;SDS011;69865;47.648;19.030;2023-12-28T00:27:20;35.57;;;34.83;;
80104;SDS011;69865;47.648;19.030;2023-12-28T00:27:52;34.60;;;33.83;;
80104;SDS011;69865;47.648;19.030;2023-12-28T00:28:24;33.57;;;32.93;;
80104;SDS011;69865;47.648;19.030;2023-12-28T00:28:56;33.20;;;32.67;;
80104;SDS011;69865;47.648;19.030;2023-12-28T00:29:28;32.93;;;32.37;;
80104;SDS011;69865;47.648;19.030;2023-12-28T00:30:01;35.70;;;34.97;;
80104;SDS011;69865;47.648;19.030;2023-12-28T00:30:33;35.47;;;34.77;;
80104;SDS011;69865;47.648;19.030;2023-12-28T00:31:05;33.67;;;33.07;;
80104;SDS011;69865;47.648;19.030;2023-12-28T00:31:38;34.77;;;34.03;;
80104;SDS011;69865;47.648;19.030;2023-12-28T00:32:10;35.27;;;34.13;;
80104;SDS011;69865;47.648;19.030;2023-12-28T00:32:42;34.37;;;33.53;;
80104;SDS011;69865;47.648;19.030;2023-12-28T00:33:14;33.63;;;32.87;;
80104;SDS011;69865;47.648;19.030;2023-12-28T00:33:46;34.43;;;33.73;;
80104;SDS011;69865;47.648;19.030;2023-12-28T00:34:18;32.23;;;31.60;;
80104;SDS011;69865;47.648;19.030;2023-12-28T00:34:51;31.97;;;31.23;;
80104;SDS011;69865;47.648;19.030;2023-12-28T00:35:23;32.27;;;31.43;;
80104;SDS011;69865;47.648;19.030;2023-12-28T00:35:55;32.90;;;32.17;;
80104;SDS011;69865;47.648;19.030;2023-12-28T00:36:27;34.10;;;33.40;;
80104;SDS011;69865;47.648;19.030;2023-12-28T00:36:59;32.30;;;31.67;;
80104;SDS011;69865;47.648;19.030;2023-12-28T00:37:32;31.80;;;31.03;;
80104;SDS011;69865;47.648;19.030;2023-12-28T00:38:04;32.27;;;31.37;;
80104;SDS011;69865;47.648;19.030;2023-12-28T00:38:36;33.60;;;32.87;;
80104;SDS011;69865;47.648;19.030;2023-12-28T00:39:08;34.27;;;33.73;;
80104;SDS011;69865;47.648;19.030;2023-12-28T00:39:41;31.60;;;31.20;;
80104;SDS011;69865;47.648;19.030;2023-12-28T00:40:13;31.43;;;31.03;;
80104;SDS011;69865;47.648;19.030;2023-12-28T00:40:45;32.77;;;32.27;;
80104;SDS011;69865;47.648;19.030;2023-12-28T00:41:18;31.97;;;31.47;;
80104;SDS011;69865;47.648;19.030;2023-12-28T00:41:50;33.37;;;32.53;;
80104;SDS011;69865;47.648;19.030;2023-12-28T00:42:22;32.47;;;31.67;;
80104;SDS011;69865;47.648;19.030;2023-12-28T00:42:55;32.90;;;32.17;;
80104;SDS011;69865;47.648;19.030;2023-12-28T00:43:27;33.07;;;32.17;;
80104;SDS011;69865;47.648;19.030;2023-12-28T00:43:59;33.80;;;32.77;;
80104;SDS011;69865;47.648;19.030;2023-12-28T00:44:31;33.87;;;33.17;;
80104;SDS011;69865;47.648;19.030;2023-12-28T00:45:03;32.23;;;31.77;;
80104;SDS011;69865;47.648;19.030;2023-12-28T00:45:36;32.27;;;31.77;;
80104;SDS011;69865;47.648;19.030;2023-12-28T00:46:09;32.97;;;32.40;;
80104;SDS011;69865;47.648;19.030;2023-12-28T00:46:42;31.87;;;31.33;;
80104;SDS011;69865;47.648;19.030;2023-12-28T00:47:15;30.20;;;29.70;;
80104;SDS011;69865;47.648;19.030;2023-12-28T00:47:47;30.53;;;29.90;;
80104;SDS011;69865;47.648;19.030;2023-12-28T00:48:19;30.67;;;29.93;;
80104;SDS011;69865;47.648;19.030;2023-12-28T00:48:51;30.20;;;29.47;;
80104;SDS011;69865;47.648;19.030;2023-12-28T00:49:23;30.10;;;29.53;;
80104;SDS011;69865;47.648;19.030;2023-12-28T00:49:55;30.13;;;29.63;;
80104;SDS011;69865;47.648;19.030;2023-12-28T00:50:28;30.13;;;29.60;;
80104;SDS011;69865;47.648;19.030;2023-12-28T00:51:00;29.93;;;29.43;;
80104;SDS011;69865;47.648;19.030;2023-12-28T00:51:32;30.37;;;29.77;;
80104;SDS011;69865;47.648;19.030;2023-12-28T00:52:04;29.10;;;28.43;;
80104;SDS011;69865;47.648;19.030;2023-12-28T00:52:37;29.97;;;29.20;;
80104;SDS011;69865;47.648;19.030;2023-12-28T00:53:09;30.57;;;29.77;;
80104;SDS011;69865;47.648;19.030;2023-12-28T00:53:41;29.80;;;28.93;;
80104;SDS011;69865;47.648;19.030;2023-12-28T00:54:13;31.20;;;30.37;;
80104;SDS011;69865;47.648;19.030;2023-12-28T00:54:45;32.87;;;32.23;;
80104;SDS011;69865;47.648;19.030;2023-12-28T00:55:17;31.83;;;31.23;;
80104;SDS011;69865;47.648;19.030;2023-12-28T00:55:49;31.33;;;30.73;;
80104;SDS011;69865;47.648;19.030;2023-12-28T00:56:23;31.43;;;30.83;;
80104;SDS011;69865;47.648;19.030;2023-12-28T00:56:55;33.13;;;32.50;;
80104;SDS011;69865;47.648;19.030;2023-12-28T00:57:27;32.70;;;31.83;;
80104;SDS011;69865;47.648;19.030;2023-12-28T00:57:59;32.23;;;31.33;;
80104;SDS011;69865;47.648;19.030;2023-12-28T00:58:32;33.50;;;32.57;;
80104;SDS011;69865;47.648;19.030;2023-12-28T00:59:04;33.80;;;33.03;;
80104;SDS011;69865;47.648;19.030;2023-12-28T00:59:36;33.83;;;33.00;;
80104;SDS011;69865;47.648;19.030;2023-12-28T01:00:08;34.60;;;33.80;;
80104;SDS011;69865;47.648;19.030;2023-12-28T01:00:41;34.00;;;33.20;;
80104;SDS011;69865;47.648;19.030;2023-12-28T01:01:13;32.17;;;31.47;;
80104;SDS011;69865;47.648;19.030;2023-12-28T01:01:47;32.57;;;31.87;;
80104;SDS011;69865;47.648;19.030;2023-12-28T01:02:19;32.47;;;31.83;;
80104;SDS011;69865;47.648;19.030;2023-12-28T01:02:51;31.80;;;31.07;;
80104;SDS011;69865;47.648;19.030;2023-12-28T01:03:23;33.20;;;32.20;;
80104;SDS011;69865;47.648;19.030;2023-12-28T01:03:55;33.07;;;32.03;;
80104;SDS011;69865;47.648;19.030;2023-12-28T01:04:28;32.17;;;31.20;;
80104;SDS011;69865;47.648;19.030;2023-12-28T01:05:00;32.17;;;31.40;;
80104;SDS011;69865;47.648;19.030;2023-12-28T01:05:32;32.83;;;32.00;;
80104;SDS011;69865;47.648;19.030;2023-12-28T01:06:04;30.53;;;29.77;;
80104;SDS011;69865;47.648;19.030;2023-12-28T01:06:37;30.90;;;30.17;;
80104;SDS011;69865;47.648;19.030;2023-12-28T01:07:09;29.73;;;29.20;;
80104;SDS011;69865;47.648;19.030;2023-12-28T01:07:41;31.37;;;30.73;;
80104;SDS011;69865;47.648;19.030;2023-12-28T01:08:13;31.27;;;30.40;;
80104;SDS011;69865;47.648;19.030;2023-12-28T01:08:45;30.77;;;29.80;;
80104;SDS011;69865;47.648;19.030;2023-12-28T01:09:18;31.13;;;30.30;;
80104;SDS011;69865;47.648;19.030;2023-12-28T01:09:50;30.20;;;29.50;;
80104;SDS011;69865;47.648;19.030;2023-12-28T01:10:22;28.77;;;28.30;;
80104;SDS011;69865;47.648;19.030;2023-12-28T01:10:54;29.50;;;29.10;;
80104;SDS011;69865;47.648;19.030;2023-12-28T01:11:28;27.37;;;27.07;;
80104;SDS011;69865;47.648;19.030;2023-12-28T01:12:00;27.97;;;27.63;;
80104;SDS011;69865;47.648;19.030;2023-12-28T01:12:32;28.27;;;27.83;;
80104;SDS011;69865;47.648;19.030;2023-12-28T01:13:05;28.57;;;28.07;;
80104;SDS011;69865;47.648;19.030;2023-12-28T01:13:37;29.10;;;28.50;;
80104;SDS011;69865;47.648;19.030;2023-12-28T01:14:11;28.60;;;27.97;;
80104;SDS011;69865;47.648;19.030;2023-12-28T01:14:43;28.13;;;27.50;;
80104;SDS011;69865;47.648;19.030;2023-12-28T01:15:15;28.97;;;28.37;;
80104;SDS011;69865;47.648;19.030;2023-12-28T01:15:47;29.17;;;28.60;;
80104;SDS011;69865;47.648;19.030;2023-12-28T01:16:20;28.43;;;28.10;;
80104;SDS011;69865;47.648;19.030;2023-12-28T01:16:52;27.87;;;27.53;;
80104;SDS011;69865;47.648;19.030;2023-12-28T01:17:24;27.93;;;27.63;;
80104;SDS011;69865;47.648;19.030;2023-12-28T01:17:56;28.53;;;28.10;;
80104;SDS011;69865;47.648;19.030;2023-12-28T01:18:29;28.33;;;27.87;;
80104;SDS011;69865;47.648;19.030;2023-12-28T01:19:01;27.70;;;27.17;;
80104;SDS011;69865;47.648;19.030;2023-12-28T01:19:33;27.23;;;26.67;;
80104;SDS011;69865;47.648;19.030;2023-12-28T01:20:06;26.80;;;26.23;;
80104;SDS011;69865;47.648;19.030;2023-12-28T01:20:39;26.97;;;26.37;;
80104;SDS011;69865;47.648;19.030;2023-12-28T01:21:11;27.43;;;26.67;;
80104;SDS011;69865;47.648;19.030;2023-12-28T01:21:43;25.63;;;25.03;;
80104;SDS011;69865;47.648;19.030;2023-12-28T01:22:15;25.87;;;25.27;;
80104;SDS011;69865;47.648;19.030;2023-12-28T01:22:47;26.20;;;25.53;;
80104;SDS011;69865;47.648;19.030;2023-12-28T01:23:19;25.93;;;25.50;;
80104;SDS011;69865;47.648;19.030;2023-12-28T01:23:52;24.83;;;24.50;;
80104;SDS011;69865;47.648;19.030;2023-12-28T01:24:23;24.87;;;24.30;;
80104;SDS011;69865;47.648;19.030;2023-12-28T01:24:56;25.83;;;25.23;;
80104;SDS011;69865;47.648;19.030;2023-12-28T01:25:28;26.17;;;25.63;;
80104;SDS011;69865;47.648;19.030;2023-12-28T01:26:00;25.57;;;25.07;;
80104;SDS011;69865;47.648;19.030;2023-12-28T01:26:37;26.10;;;25.73;;
80104;SDS011;69865;47.648;19.030;2023-12-28T01:27:09;26.10;;;25.67;;
80104;SDS011;69865;47.648;19.030;2023-12-28T01:27:41;27.00;;;26.40;;
80104;SDS011;69865;47.648;19.030;2023-12-28T01:28:13;27.23;;;26.37;;
80104;SDS011;69865;47.648;19.030;2023-12-28T01:28:45;26.17;;;25.37;;
80104;SDS011;69865;47.648;19.030;2023-12-28T01:29:17;25.27;;;24.57;;
80104;SDS011;69865;47.648;19.030;2023-12-28T01:29:49;25.17;;;24.67;;
80104;SDS011;69865;47.648;19.030;2023-12-28T01:30:21;25.03;;;24.60;;
80104;SDS011;69865;47.648;19.030;2023-12-28T01:30:54;24.53;;;24.17;;
80104;SDS011;69865;47.648;19.030;2023-12-28T01:31:26;24.53;;;24.20;;
80104;SDS011;69865;47.648;19.030;2023-12-28T01:31:58;24.47;;;23.97;;
80104;SDS011;69865;47.648;19.030;2023-12-28T01:32:31;25.50;;;24.90;;
80104;SDS011;69865;47.648;19.030;2023-12-28T01:33:03;24.87;;;24.33;;
80104;SDS011;69865;47.648;19.030;2023-12-28T01:33:35;24.97;;;24.53;;
80104;SDS011;69865;47.648;19.030;2023-12-28T01:34:08;25.27;;;24.77;;
80104;SDS011;69865;47.648;19.030;2023-12-28T01:34:40;25.70;;;25.17;;
80104;SDS011;69865;47.648;19.030;2023-12-28T01:35:13;25.07;;;24.60;;
80104;SDS011;69865;47.648;19.030;2023-12-28T01:35:45;24.63;;;24.07;;
80104;SDS011;69865;47.648;19.030;2023-12-28T01:36:17;25.17;;;24.47;;
80104;SDS011;69865;47.648;19.030;2023-12-28T01:36:50;25.10;;;24.47;;
80104;SDS011;69865;47.648;19.030;2023-12-28T01:37:22;23.73;;;23.30;;
80104;SDS011;69865;47.648;19.030;2023-12-28T01:37:55;24.00;;;23.53;;
80104;SDS011;69865;47.648;19.030;2023-12-28T01:38:27;24.17;;;23.70;;
80104;SDS011;69865;47.648;19.030;2023-12-28T01:38:59;23.87;;;23.30;;
80104;SDS011;69865;47.648;19.030;2023-12-28T01:39:31;23.90;;;23.47;;
80104;SDS011;69865;47.648;19.030;2023-12-28T01:40:04;24.37;;;23.97;;
80104;SDS011;69865;47.648;19.030;2023-12-28T01:40:37;24.20;;;23.77;;
80104;SDS011;69865;47.648;19.030;2023-12-28T01:41:09;24.60;;;23.97;;
80104;SDS011;69865;47.648;19.030;2023-12-28T01:41:43;23.93;;;23.37;;
80104;SDS011;69865;47.648;19.030;2023-12-28T01:42:16;25.30;;;24.60;;
80104;SDS011;69865;47.648;19.030;2023-12-28T01:42:48;24.70;;;24.03;;
80104;SDS011;69865;47.648;19.030;2023-12-28T01:43:20;25.83;;;25.17;;
80104;SDS011;69865;47.648;19.030;2023-12-28T01:43:52;24.17;;;23.60;;
80104;SDS011;69865;47.648;19.030;2023-12-28T01:44:24;23.87;;;23.23;;
80104;SDS011;69865;47.648;19.030;2023-12-28T01:44:57;24.17;;;23.70;;
80104;SDS011;69865;47.648;19.030;2023-12-28T01:45:29;24.80;;;24.33;;
80104;SDS011;69865;47.648;19.030;2023-12-28T01:46:01;24.93;;;24.37;;
80104;SDS011;69865;47.648;19.030;2023-12-28T01:46:34;24.97;;;24.33;;
80104;SDS011;69865;47.648;19.030;2023-12-28T01:47:06;24.43;;;23.70;;
80104;SDS011;69865;47.648;19.030;2023-12-28T01:47:39;24.20;;;23.20;;
80104;SDS011;69865;47.648;19.030;2023-12-28T01:48:12;25.23;;;24.27;;
80104;SDS011;69865;47.648;19.030;2023-12-28T01:48:46;25.30;;;24.67;;
80104;SDS011;69865;47.648;19.030;2023-12-28T01:49:21;23.80;;;23.37;;
80104;SDS011;69865;47.648;19.030;2023-12-28T01:49:55;24.80;;;24.33;;
80104;SDS011;69865;47.648;19.030;2023-12-28T01:50:28;23.50;;;23.13;;
80104;SDS011;69865;47.648;19.030;2023-12-28T01:51:02;22.97;;;22.63;;
80104;SDS011;69865;47.648;19.030;2023-12-28T01:51:34;23.87;;;23.47;;
80104;SDS011;69865;47.648;19.030;2023-12-28T01:52:08;24.00;;;23.53;;
80104;SDS011;69865;47.648;19.030;2023-12-28T01:52:40;25.17;;;24.80;;
80104;SDS011;69865;47.648;19.030;2023-12-28T01:53:12;24.80;;;24.40;;
80104;SDS011;69865;47.648;19.030;2023-12-28T01:53:46;23.93;;;23.50;;
80104;SDS011;69865;47.648;19.030;2023-12-28T01:54:21;23.60;;;23.07;;
80104;SDS011;69865;47.648;19.030;2023-12-28T01:54:54;24.70;;;24.20;;
80104;SDS011;69865;47.648;19.030;2023-12-28T01:55:27;23.93;;;23.57;;
80104;SDS011;69865;47.648;19.030;2023-12-28T01:56:00;23.27;;;22.80;;
80104;SDS011;69865;47.648;19.030;2023-12-28T01:56:33;25.17;;;24.70;;
80104;SDS011;69865;47.648;19.030;2023-12-28T01:57:07;23.50;;;23.03;;
80104;SDS011;69865;47.648;19.030;2023-12-28T01:57:40;23.53;;;23.07;;
80104;SDS011;69865;47.648;19.030;2023-12-28T01:58:13;23.00;;;22.53;;
80104;SDS011;69865;47.648;19.030;2023-12-28T01:58:45;22.50;;;22.00;;
80104;SDS011;69865;47.648;19.030;2023-12-28T01:59:20;23.50;;;22.97;;
80104;SDS011;69865;47.648;19.030;2023-12-28T01:59:53;23.93;;;23.37;;
80104;SDS011;69865;47.648;19.030;2023-12-28T02:00:25;23.50;;;23.00;;
80104;SDS011;69865;47.648;19.030;2023-12-28T02:00:58;23.47;;;22.93;;
80104;SDS011;69865;47.648;19.030;2023-12-28T02:01:30;21.83;;;21.47;;
80104;SDS011;69865;47.648;19.030;2023-12-28T02:02:03;22.63;;;22.33;;
80104;SDS011;69865;47.648;19.030;2023-12-28T02:02:35;22.67;;;22.30;;
80104;SDS011;69865;47.648;19.030;2023-12-28T02:03:08;22.97;;;22.70;;
80104;SDS011;69865;47.648;19.030;2023-12-28T02:03:40;23.83;;;23.57;;
80104;SDS011;69865;47.648;19.030;2023-12-28T02:04:12;23.97;;;23.53;;
80104;SDS011;69865;47.648;19.030;2023-12-28T02:04:46;24.47;;;23.97;;
80104;SDS011;69865;47.648;19.030;2023-12-28T02:05:18;22.50;;;22.13;;
80104;SDS011;69865;47.648;19.030;2023-12-28T02:05:51;23.00;;;22.60;;
80104;SDS011;69865;47.648;19.030;2023-12-28T02:06:23;23.20;;;22.70;;
80104;SDS011;69865;47.648;19.030;2023-12-28T02:06:57;22.93;;;22.37;;
80104;SDS011;69865;47.648;19.030;2023-12-28T02:07:30;24.40;;;23.77;;
80104;SDS011;69865;47.648;19.030;2023-12-28T02:08:05;24.53;;;24.07;;
80104;SDS011;69865;47.648;19.030;2023-12-28T02:08:37;23.90;;;23.60;;
80104;SDS011;69865;47.648;19.030;2023-12-28T02:09:09;24.00;;;23.70;;
80104;SDS011;69865;47.648;19.030;2023-12-28T02:09:42;23.70;;;23.47;;
80104;SDS011;69865;47.648;19.030;2023-12-28T02:10:14;22.67;;;22.47;;
80104;SDS011;69865;47.648;19.030;2023-12-28T02:10:46;24.47;;;24.20;;
80104;SDS011;69865;47.648;19.030;2023-12-28T02:11:18;24.70;;;24.37;;
80104;SDS011;69865;47.648;19.030;2023-12-28T02:11:51;23.67;;;23.20;;
80104;SDS011;69865;47.648;19.030;2023-12-28T02:12:25;23.17;;;22.77;;
80104;SDS011;69865;47.648;19.030;2023-12-28T02:12:57;24.10;;;23.80;;
80104;SDS011;69865;47.648;19.030;2023-12-28T02:13:30;23.83;;;23.57;;
80104;SDS011;69865;47.648;19.030;2023-12-28T02:14:02;23.37;;;23.07;;
80104;SDS011;69865;47.648;19.030;2023-12-28T02:14:34;23.03;;;22.77;;
80104;SDS011;69865;47.648;19.030;2023-12-28T02:15:07;23.13;;;22.87;;
80104;SDS011;69865;47.648;19.030;2023-12-28T02:15:40;22.77;;;22.43;;
80104;SDS011;69865;47.648;19.030;2023-12-28T02:16:13;22.77;;;22.43;;
80104;SDS011;69865;47.648;19.030;2023-12-28T02:16:54;22.77;;;22.50;;
80104;SDS011;69865;47.648;19.030;2023-12-28T02:17:33;23.90;;;23.43;;
80104;SDS011;69865;47.648;19.030;2023-12-28T02:18:11;24.70;;;24.20;;
80104;SDS011;69865;47.648;19.030;2023-12-28T02:18:48;23.13;;;22.73;;
80104;SDS011;69865;47.648;19.030;2023-12-28T02:19:25;24.47;;;24.03;;
80104;SDS011;69865;47.648;19.030;2023-12-28T02:20:09;22.90;;;22.30;;
80104;SDS011;69865;47.648;19.030;2023-12-28T02:20:43;22.77;;;22.27;;
80104;SDS011;69865;47.648;19.030;2023-12-28T02:21:15;22.37;;;22.00;;
80104;SDS011;69865;47.648;19.030;2023-12-28T02:21:49;23.53;;;23.10;;
80104;SDS011;69865;47.648;19.030;2023-12-28T02:22:23;23.80;;;23.33;;
80104;SDS011;69865;47.648;19.030;2023-12-28T02:22:57;23.50;;;22.87;;
80104;SDS011;69865;47.648;19.030;2023-12-28T02:23:31;23.10;;;22.43;;
80104;SDS011;69865;47.648;19.030;2023-12-28T02:24:06;23.67;;;23.13;;
80104;SDS011;69865;47.648;19.030;2023-12-28T02:25:42;22.33;;;21.80;;
80104;SDS011;69865;47.648;19.030;2023-12-28T02:26:14;22.63;;;22.13;;
80104;SDS011;69865;47.648;19.030;2023-12-28T02:26:46;22.57;;;22.17;;
80104;SDS011;69865;47.648;19.030;2023-12-28T02:27:18;22.67;;;22.27;;
80104;SDS011;69865;47.648;19.030;2023-12-28T02:27:51;22.43;;;22.10;;
80104;SDS011;69865;47.648;19.030;2023-12-28T02:28:23;22.23;;;21.97;;
80104;SDS011;69865;47.648;19.030;2023-12-28T02:28:56;22.03;;;21.77;;
80104;SDS011;69865;47.648;19.030;2023-12-28T02:29:28;23.00;;;22.53;;
80104;SDS011;69865;47.648;19.030;2023-12-28T02:30:00;21.73;;;21.33;;
80104;SDS011;69865;47.648;19.030;2023-12-28T02:30:33;21.90;;;21.53;;
80104;SDS011;69865;47.648;19.030;2023-12-28T02:31:05;22.57;;;22.00;;
80104;SDS011;69865;47.648;19.030;2023-12-28T02:31:42;20.90;;;20.50;;
80104;SDS011;69865;47.648;19.030;2023-12-28T02:32:22;22.17;;;21.83;;
80104;SDS011;69865;47.648;19.030;2023-12-28T02:33:02;21.77;;;21.27;;
80104;SDS011;69865;47.648;19.030;2023-12-28T02:33:43;23.13;;;22.57;;
80104;SDS011;69865;47.648;19.030;2023-12-28T02:34:27;23.63;;;22.97;;
80104;SDS011;69865;47.648;19.030;2023-12-28T02:35:09;21.57;;;20.97;;
80104;SDS011;69865;47.648;19.030;2023-12-28T02:35:48;22.13;;;21.57;;
80104;SDS011;69865;47.648;19.030;2023-12-28T02:36:25;23.60;;;23.00;;
80104;SDS011;69865;47.648;19.030;2023-12-28T02:36:58;22.63;;;22.13;;
80104;SDS011;69865;47.648;19.030;2023-12-28T02:37:33;22.07;;;21.63;;
80104;SDS011;69865;47.648;19.030;2023-12-28T02:38:06;22.00;;;21.60;;
80104;SDS011;69865;47.648;19.030;2023-12-28T02:38:41;21.87;;;21.43;;
80104;SDS011;69865;47.648;19.030;2023-12-28T02:39:15;22.53;;;22.07;;
80104;SDS011;69865;47.648;19.030;2023-12-28T02:39:49;21.70;;;21.20;;
80104;SDS011;69865;47.648;19.030;2023-12-28T02:40:26;22.67;;;22.23;;
80104;SDS011;69865;47.648;19.030;2023-12-28T02:41:00;21.87;;;21.57;;
80104;SDS011;69865;47.648;19.030;2023-12-28T02:41:34;21.50;;;21.17;;
80104;SDS011;69865;47.648;19.030;2023-12-28T02:42:07;21.77;;;21.37;;
80104;SDS011;69865;47.648;19.030;2023-12-28T02:42:39;21.57;;;21.17;;
80104;SDS011;69865;47.648;19.030;2023-12-28T02:43:11;21.93;;;21.50;;
80104;SDS011;69865;47.648;19.030;2023-12-28T02:43:44;21.90;;;21.57;;
80104;SDS011;69865;47.648;19.030;2023-12-28T02:44:18;21.73;;;21.30;;
80104;SDS011;69865;47.648;19.030;2023-12-28T02:44:51;21.50;;;21.13;;
80104;SDS011;69865;47.648;19.030;2023-12-28T02:45:23;21.80;;;21.40;;
80104;SDS011;69865;47.648;19.030;2023-12-28T02:45:55;22.63;;;22.13;;
80104;SDS011;69865;47.648;19.030;2023-12-28T02:46:27;22.57;;;22.03;;
80104;SDS011;69865;47.648;19.030;2023-12-28T02:46:59;20.80;;;20.33;;
80104;SDS011;69865;47.648;19.030;2023-12-28T02:47:31;20.73;;;20.40;;
80104;SDS011;69865;47.648;19.030;2023-12-28T02:48:04;20.97;;;20.63;;
80104;SDS011;69865;47.648;19.030;2023-12-28T02:48:37;21.67;;;21.33;;
80104;SDS011;69865;47.648;19.030;2023-12-28T02:49:11;19.67;;;19.40;;
80104;SDS011;69865;47.648;19.030;2023-12-28T02:49:44;20.80;;;20.60;;
80104;SDS011;69865;47.648;19.030;2023-12-28T02:50:16;21.10;;;20.73;;
80104;SDS011;69865;47.648;19.030;2023-12-28T02:50:48;20.27;;;19.93;;
80104;SDS011;69865;47.648;19.030;2023-12-28T02:51:20;20.97;;;20.67;;
80104;SDS011;69865;47.648;19.030;2023-12-28T02:51:52;20.23;;;20.00;;
80104;SDS011;69865;47.648;19.030;2023-12-28T02:52:25;20.57;;;20.27;;
80104;SDS011;69865;47.648;19.030;2023-12-28T02:52:57;19.83;;;19.53;;
80104;SDS011;69865;47.648;19.030;2023-12-28T02:53:29;20.43;;;20.17;;
80104;SDS011;69865;47.648;19.030;2023-12-28T02:54:01;21.03;;;20.80;;
80104;SDS011;69865;47.648;19.030;2023-12-28T02:54:34;19.70;;;19.40;;
80104;SDS011;69865;47.648;19.030;2023-12-28T02:55:06;21.07;;;20.70;;
80104;SDS011;69865;47.648;19.030;2023-12-28T02:55:40;19.90;;;19.57;;
80104;SDS011;69865;47.648;19.030;2023-12-28T02:56:12;20.57;;;20.17;;
80104;SDS011;69865;47.648;19.030;2023-12-28T02:56:44;21.70;;;21.37;;
80104;SDS011;69865;47.648;19.030;2023-12-28T02:57:16;20.73;;;20.43;;
80104;SDS011;69865;47.648;19.030;2023-12-28T02:57:49;19.60;;;19.53;;
80104;SDS011;69865;47.648;19.030;2023-12-28T02:58:22;19.80;;;19.53;;
80104;SDS011;69865;47.648;19.030;2023-12-28T02:58:54;20.87;;;20.43;;
80104;SDS011;69865;47.648;19.030;2023-12-28T02:59:26;22.03;;;21.53;;
80104;SDS011;69865;47.648;19.030;2023-12-28T02:59:58;21.00;;;20.57;;
80104;SDS011;69865;47.648;19.030;2023-12-28T03:00:30;20.70;;;20.30;;
80104;SDS011;69865;47.648;19.030;2023-12-28T03:01:03;20.57;;;20.20;;
80104;SDS011;69865;47.648;19.030;2023-12-28T03:01:35;20.87;;;20.53;;
80104;SDS011;69865;47.648;19.030;2023-12-28T03:02:07;20.27;;;20.00;;
80104;SDS011;69865;47.648;19.030;2023-12-28T03:02:39;20.10;;;19.80;;
80104;SDS011;69865;47.648;19.030;2023-12-28T03:03:11;21.30;;;20.97;;
80104;SDS011;69865;47.648;19.030;2023-12-28T03:03:44;20.30;;;20.13;;
80104;SDS011;69865;47.648;19.030;2023-12-28T03:04:16;20.97;;;20.87;;
80104;SDS011;69865;47.648;19.030;2023-12-28T03:04:49;20.67;;;20.47;;
80104;SDS011;69865;47.648;19.030;2023-12-28T03:05:21;20.83;;;20.50;;
80104;SDS011;69865;47.648;19.030;2023-12-28T03:05:53;20.83;;;20.50;;
80104;SDS011;69865;47.648;19.030;2023-12-28T03:06:25;21.43;;;21.10;;
80104;SDS011;69865;47.648;19.030;2023-12-28T03:06:57;21.50;;;21.13;;
80104;SDS011;69865;47.648;19.030;2023-12-28T03:07:29;21.63;;;21.30;;
80104;SDS011;69865;47.648;19.030;2023-12-28T03:08:01;20.97;;;20.70;;
80104;SDS011;69865;47.648;19.030;2023-12-28T03:08:33;21.20;;;20.93;;
80104;SDS011;69865;47.648;19.030;2023-12-28T03:09:05;20.73;;;20.43;;
80104;SDS011;69865;47.648;19.030;2023-12-28T03:09:38;21.93;;;21.63;;
80104;SDS011;69865;47.648;19.030;2023-12-28T03:10:10;21.57;;;21.20;;